.
WxDataArchive / Data Records for 2006-05-27
2006-05-26 May 2006 2006-05-28

Data Records for Saturday, 27 May 2006

Time	Temp	Chill	HIndex	Humid	Dewpt	 Wind 	HiWind	WindDir	Rain 	Barom 
-----	----	-----	------	-----	-----	------	------	-------	-----	----- 
00:00	62.7	62.7	62.7	85	58.1	0	0	---	0.00	29.734 
00:05	62.4	62.4	62.4	86	58.2	0	0	---	0.00	29.734 
00:10	62.1	62.1	62.1	86	57.9	0	0	---	0.00	29.734 
00:15	62.0	62.0	62.0	86	57.8	0	0	---	0.00	29.741 
00:20	61.6	61.6	61.6	86	57.4	0	0	---	0.00	29.741 
00:25	61.3	61.3	61.3	87	57.4	0	0	---	0.00	29.741 
00:30	61.2	61.2	61.2	88	57.6	0	0	---	0.00	29.748 
00:35	60.9	60.9	60.9	88	57.3	0	0	---	0.00	29.748 
00:40	60.7	60.7	60.7	89	57.4	0	0	---	0.00	29.748 
00:45	60.5	60.5	60.5	90	57.5	0	0	---	0.00	29.749 
00:50	60.5	60.5	60.5	90	57.5	0	0	---	0.00	29.749 
00:55	60.4	60.4	60.4	91	57.8	0	0	---	0.00	29.749 
01:00	60.4	60.4	60.4	91	57.8	0	0	---	0.00	29.755 
01:05	60.4	60.4	60.4	91	57.8	0	0	---	0.00	29.755 
01:10	60.4	60.4	60.4	91	57.8	0	0	---	0.00	29.755 
01:15	60.2	60.2	60.2	91	57.6	0	0	---	0.00	29.755 
01:20	60.2	60.2	60.2	91	57.6	0	0	---	0.00	29.755 
01:25	60.1	60.1	60.1	91	57.5	0	0	---	0.00	29.755 
01:30	60.1	60.1	60.1	91	57.5	0	0	---	0.00	29.762 
01:35	59.9	59.9	59.9	91	57.3	0	0	---	0.00	29.762 
01:40	60.1	60.1	60.1	91	57.5	0	0	---	0.00	29.762 
01:45	60.1	60.1	60.1	92	57.8	0	0	---	0.00	29.765 
01:50	60.1	60.1	60.1	91	57.5	0	0	---	0.00	29.765 
01:55	59.9	59.9	59.9	91	57.3	0	0	---	0.00	29.765 
02:00	59.8	59.8	59.8	91	57.2	0	0	---	0.00	29.772 
02:05	59.6	59.6	59.6	91	57.0	0	0	---	0.00	29.772 
02:10	59.5	59.5	59.5	92	57.2	0	0	---	0.00	29.772 
02:15	59.2	59.2	59.2	91	56.6	0	0	---	0.00	29.776 
02:20	59.0	59.0	59.0	92	56.7	0	0	---	0.00	29.776 
02:25	58.9	58.9	58.9	92	56.6	0	0	---	0.00	29.776 
02:30	58.7	58.7	58.7	92	56.4	0	0	---	0.00	29.779 
02:35	58.6	58.6	58.6	92	56.3	0	0	---	0.00	29.779 
02:40	58.4	58.4	58.4	92	56.1	0	0	---	0.00	29.779 
02:45	58.4	58.4	58.4	92	56.1	0	0	---	0.00	29.780 
02:50	58.4	58.4	58.4	93	56.4	0	0	---	0.00	29.780 
02:55	58.4	58.4	58.4	93	56.4	0	0	---	0.00	29.780 
03:00	58.4	58.4	58.4	93	56.4	0	0	---	0.00	29.780 
03:05	58.3	58.3	58.3	93	56.3	0	0	---	0.00	29.780 
03:10	58.1	58.1	58.1	93	56.1	0	0	---	0.00	29.780 
03:15	58.0	58.0	58.0	93	56.0	0	0	---	0.00	29.781 
03:20	57.8	57.8	57.8	93	55.8	0	0	---	0.00	29.781 
03:25	57.6	57.6	57.6	93	55.6	0	0	---	0.00	29.781 
03:30	57.6	57.6	57.6	93	55.6	0	0	---	0.00	29.785 
03:35	57.5	57.5	57.5	93	55.5	0	0	---	0.00	29.785 
03:40	57.5	57.5	57.5	93	55.5	0	0	---	0.00	29.785 
03:45	57.3	57.3	57.3	94	55.6	0	0	---	0.00	29.794 
03:50	57.3	57.3	57.3	94	55.6	0	0	---	0.00	29.794 
03:55	57.2	57.2	57.2	94	55.5	0	0	---	0.00	29.794 
04:00	57.2	57.2	57.2	94	55.5	0	0	---	0.00	29.799 
04:05	57.0	57.0	57.0	94	55.3	0	0	---	0.00	29.799 
04:10	57.0	57.0	57.0	94	55.3	0	0	---	0.00	29.799 
04:15	56.9	56.9	56.9	94	55.2	0	0	---	0.00	29.798 
04:20	56.9	56.9	56.9	94	55.2	0	0	---	0.00	29.798 
04:25	56.7	56.7	56.7	94	55.0	0	0	---	0.00	29.798 
04:30	56.7	56.7	56.7	94	55.0	0	0	---	0.00	29.801 
04:35	56.7	56.7	56.7	94	55.0	0	0	---	0.00	29.801 
04:40	56.7	56.7	56.7	94	55.0	0	0	---	0.00	29.801 
04:45	56.6	56.6	56.6	94	54.9	0	0	---	0.00	29.805 
04:50	56.5	56.5	56.5	94	54.8	0	0	---	0.00	29.805 
04:55	56.5	56.5	56.5	94	54.8	0	0	---	0.00	29.805 
05:00	56.3	56.3	56.3	94	54.6	0	0	---	0.00	29.797 
05:05	56.3	56.3	56.3	94	54.6	0	0	---	0.00	29.797 
05:10	56.2	56.2	56.2	95	54.8	0	0	---	0.00	29.797 
05:15	56.2	56.2	56.2	95	54.8	0	0	---	0.00	29.798 
05:20	56.0	56.0	56.0	95	54.6	0	0	---	0.00	29.798 
05:25	56.0	56.0	56.0	95	54.6	0	0	---	0.00	29.798 
05:30	55.9	55.9	55.9	95	54.5	0	0	---	0.00	29.808 
05:35	55.9	55.9	55.9	95	54.5	0	0	---	0.00	29.808 
05:40	55.7	55.7	55.7	95	54.3	0	0	---	0.00	29.808 
05:45	55.7	55.7	55.7	95	54.3	0	0	---	0.00	29.811 
05:50	55.7	55.7	55.7	95	54.3	0	0	---	0.00	29.811 
05:55	55.6	55.6	55.6	95	54.2	0	0	---	0.00	29.811 
06:00	55.7	55.7	55.7	95	54.3	0	0	---	0.00	29.819 
06:05	55.6	55.6	55.6	95	54.2	0	0	---	0.00	29.819 
06:10	55.6	55.6	55.6	95	54.2	0	0	---	0.00	29.819 
06:15	55.6	55.6	55.6	95	54.2	0	0	---	0.00	29.828 
06:20	55.4	55.4	55.4	95	54.0	0	0	---	0.00	29.828 
06:25	55.4	55.4	55.4	95	54.0	0	0	---	0.00	29.828 
06:30	55.4	55.4	55.4	95	54.0	0	0	---	0.00	29.834 
06:35	55.6	55.6	55.6	95	54.2	0	0	---	0.00	29.834 
06:40	55.6	55.6	55.6	95	54.2	0	0	---	0.00	29.834 
06:45	55.6	55.6	55.6	95	54.2	0	0	---	0.00	29.844 
06:50	55.6	55.6	55.6	95	54.2	0	0	---	0.00	29.844 
06:55	55.7	55.7	55.7	95	54.3	0	0	---	0.00	29.844 
07:00	56.0	56.0	56.0	95	54.6	0	0	---	0.00	29.859 
07:05	56.2	56.2	56.2	95	54.8	0	0	---	0.00	29.859 
07:10	56.5	56.5	56.5	96	55.4	0	0	---	0.00	29.859 
07:15	56.9	56.9	56.9	96	55.8	0	0	---	0.00	29.861 
07:20	57.6	57.6	57.6	96	56.5	0	0	---	0.00	29.861 
07:25	58.4	58.4	58.4	96	57.3	0	1	315	0.00	29.861 
07:30	59.2	59.2	59.2	96	58.1	0	0	---	0.00	29.867 
07:35	59.6	59.6	59.6	96	58.5	0	1	315	0.00	29.867 
07:40	60.2	60.2	60.2	96	59.1	0	1	315	0.00	29.867 
07:45	60.7	60.7	60.7	96	59.6	0	1	315	0.00	29.874 
07:50	61.3	61.3	61.3	96	60.1	0	1	315	0.00	29.874 
07:55	61.8	61.8	61.8	95	60.3	0	1	315	0.00	29.874 
08:00	62.7	62.7	62.7	93	60.6	0	1	315	0.00	29.883 
08:05	63.4	63.4	63.4	89	60.1	0	1	315	0.00	29.883 
08:10	64.3	64.3	64.3	87	60.3	0	1	315	0.00	29.883 
08:15	65.2	65.2	65.2	83	59.9	0	2	315	0.00	29.887 
08:20	66.0	66.0	66.0	82	60.3	0	2	270	0.00	29.887 
08:25	66.8	66.8	66.8	82	61.1	0	1	270	0.00	29.887 
08:30	67.4	67.4	67.4	79	60.7	0	2	270	0.00	29.886 
08:35	68.3	68.3	68.3	74	59.7	0	1	270	0.00	29.886 
08:40	68.8	68.8	68.8	76	60.9	0	1	270	0.00	29.886 
08:45	69.1	69.1	69.1	76	61.2	0	1	270	0.00	29.896 
08:50	69.4	69.4	69.4	75	61.1	0	0	---	0.00	29.896 
08:55	70.1	70.1	70.1	74	61.4	0	2	270	0.00	29.896 
09:00	70.6	70.6	70.6	71	60.7	0	1	270	0.00	29.896 
09:05	71.1	71.1	71.1	72	61.6	0	2	270	0.00	29.896 
09:10	71.3	71.3	71.3	71	61.4	1	3	270	0.00	29.896 
09:15	71.6	71.6	71.6	73	62.5	1	2	292	0.00	29.900 
09:20	71.8	71.8	71.8	73	62.7	1	3	292	0.00	29.900 
09:25	71.8	71.8	71.8	72	62.3	1	3	45	0.00	29.900 
09:30	72.1	72.1	72.1	71	62.2	1	3	45	0.00	29.899 
09:35	72.1	72.1	72.1	70	61.8	1	4	45	0.00	29.899 
09:40	72.5	72.5	72.5	69	61.7	1	3	112	0.00	29.899 
09:45	73.2	73.2	73.2	69	62.4	0	2	112	0.00	29.898 
09:50	73.7	73.7	73.7	68	62.5	1	4	112	0.00	29.898 
09:55	73.5	73.5	73.5	70	63.1	2	3	90	0.00	29.898 
10:00	73.5	73.5	73.5	71	63.5	1	3	90	0.00	29.900 
10:05	73.9	73.9	73.9	67	62.2	1	3	112	0.00	29.900 
10:10	74.6	74.6	74.6	66	62.5	1	3	135	0.00	29.900 
10:15	75.3	75.3	77.3	65	62.7	1	3	112	0.00	29.900 
10:20	75.6	75.6	77.5	66	63.4	1	4	112	0.00	29.900 
10:25	76.0	76.0	77.8	66	63.8	1	2	112	0.00	29.900 
10:30	76.1	76.1	78.0	65	63.5	2	3	112	0.00	29.899 
10:35	76.5	76.5	78.3	64	63.4	1	3	112	0.00	29.899 
10:40	76.5	76.5	78.3	66	64.3	1	3	180	0.00	29.899 
10:45	77.0	77.0	78.8	62	63.0	1	3	68	0.00	29.898 
10:50	77.2	77.2	79.0	63	63.6	2	4	90	0.00	29.898 
10:55	77.0	77.0	78.8	62	63.0	2	4	112	0.00	29.898 
11:00	77.2	77.2	79.0	62	63.2	2	3	248	0.00	29.900 
11:05	77.7	77.7	79.5	63	64.1	1	3	270	0.00	29.900 
11:10	78.1	78.1	79.8	61	63.5	2	4	270	0.00	29.900 
11:15	78.3	78.3	80.0	60	63.2	1	3	112	0.00	29.900 
11:20	78.6	78.6	80.1	58	62.6	1	2	90	0.00	29.900 
11:25	79.0	79.0	80.8	62	64.8	2	5	90	0.00	29.900 
11:30	79.0	79.0	80.8	61	64.4	2	3	90	0.00	29.901 
11:35	78.8	78.8	80.6	62	64.7	2	3	270	0.00	29.901 
11:40	79.2	79.2	81.0	61	64.6	1	3	270	0.00	29.901 
11:45	79.4	79.4	80.9	58	63.3	2	4	248	0.00	29.899 
11:50	79.6	79.6	81.4	61	64.9	1	4	22	0.00	29.899 
11:55	79.4	79.4	81.0	59	63.8	2	4	270	0.00	29.899 
12:00	79.8	79.8	81.8	62	65.6	1	4	248	0.00	29.897 
12:05	80.3	80.3	81.9	58	64.2	2	5	112	0.00	29.897 
12:10	80.3	80.3	81.9	58	64.2	1	3	90	0.00	29.897 
12:15	80.5	80.5	82.2	58	64.3	2	5	68	0.00	29.896 
12:20	80.7	80.7	82.2	56	63.5	2	4	248	0.00	29.896 
12:25	80.9	80.9	82.1	54	62.7	1	3	248	0.00	29.896 
12:30	81.1	81.1	82.6	56	63.9	1	3	292	0.00	29.897 
12:35	81.1	81.1	82.3	54	62.9	2	5	90	0.00	29.897 
12:40	80.9	80.9	82.3	55	63.2	2	4	270	0.00	29.897 
12:45	80.9	80.9	82.3	55	63.2	1	4	68	0.00	29.898 
12:50	81.1	81.1	82.6	56	63.9	2	5	90	0.00	29.898 
12:55	81.2	81.2	82.5	54	62.9	2	4	90	0.00	29.898 
13:00	81.4	81.4	82.5	53	62.6	1	4	0	0.00	29.898 
13:05	81.6	81.6	82.3	50	61.1	1	4	45	0.00	29.898 
13:10	81.6	81.6	82.8	53	62.8	1	3	90	0.00	29.898 
13:15	81.8	81.8	82.8	52	62.4	2	4	112	0.00	29.895 
13:20	82.0	82.0	83.2	53	63.2	1	3	90	0.00	29.895 
13:25	82.0	82.0	82.9	51	62.1	1	3	90	0.00	29.895 
13:30	82.4	82.4	83.9	54	64.1	2	4	315	0.00	29.893 
13:35	82.4	82.4	83.0	49	61.3	2	5	90	0.00	29.893 
13:40	82.2	82.2	83.6	54	63.9	2	4	90	0.00	29.893 
13:45	82.2	82.2	83.6	54	63.9	2	4	68	0.00	29.893 
13:50	82.2	82.2	83.5	53	63.3	1	5	315	0.00	29.893 
13:55	81.8	81.8	82.4	49	60.7	2	4	270	0.00	29.893 
14:00	81.6	81.6	82.8	53	62.8	1	4	270	0.00	29.896 
14:05	81.6	81.6	82.5	51	61.7	1	4	270	0.00	29.896 
14:10	81.8	81.8	82.8	52	62.4	1	4	248	0.00	29.896 
14:15	82.2	82.2	83.5	53	63.3	1	3	248	0.00	29.898 
14:20	82.4	82.4	83.5	52	63.0	1	4	248	0.00	29.898 
14:25	82.6	82.6	84.1	54	64.2	1	4	112	0.00	29.898 
14:30	82.8	82.8	83.8	51	62.8	1	3	248	0.00	29.898 
14:35	83.2	83.2	84.5	52	63.7	1	3	112	0.00	29.898 
14:40	83.0	83.0	83.7	49	61.8	2	5	90	0.00	29.898 
14:45	82.8	82.8	84.0	52	63.3	1	2	90	0.00	29.898 
14:50	82.4	82.4	83.2	50	61.9	2	6	90	0.00	29.898 
14:55	82.4	82.4	83.9	54	64.1	2	6	68	0.00	29.898 
15:00	82.8	82.8	83.5	49	61.7	2	4	112	0.00	29.897 
15:05	83.0	83.0	84.1	51	63.0	2	5	112	0.00	29.897 
15:10	83.2	83.2	84.1	50	62.6	3	5	90	0.00	29.897 
15:15	83.4	83.4	84.8	52	63.9	1	3	90	0.00	29.897 
15:20	83.6	83.6	84.6	50	63.0	2	7	90	0.00	29.897 
15:25	83.8	83.8	85.3	52	64.3	1	5	68	0.00	29.897 
15:30	84.0	84.0	85.8	53	65.0	2	5	90	0.00	29.898 
15:35	84.3	84.3	85.1	48	62.4	2	4	270	0.00	29.898 
15:40	84.7	84.7	86.8	53	65.6	1	4	90	0.00	29.898 
15:45	84.7	84.7	85.4	47	62.2	2	4	90	0.00	29.897 
15:50	84.5	84.5	85.8	50	63.8	1	5	248	0.00	29.897 
15:55	84.5	84.5	85.6	49	63.2	1	5	68	0.00	29.897 
16:00	84.7	84.7	86.3	51	64.5	1	4	248	0.00	29.898 
16:05	84.7	84.7	86.0	50	64.0	1	4	22	0.00	29.898 
16:10	84.7	84.7	85.4	47	62.2	2	6	112	0.00	29.898 
16:15	84.3	84.3	85.5	50	63.6	2	5	90	0.00	29.900 
16:20	84.3	84.3	85.7	51	64.2	1	3	68	0.00	29.900 
16:25	84.3	84.3	85.1	48	62.4	2	7	270	0.00	29.900 
16:30	84.3	84.3	85.1	48	62.4	2	5	248	0.00	29.903 
16:35	84.5	84.5	85.8	50	63.8	1	3	90	0.00	29.903 
16:40	84.5	84.5	85.6	49	63.2	2	7	90	0.00	29.903 
16:45	84.0	84.0	85.1	50	63.3	2	6	90	0.00	29.906 
16:50	83.4	83.4	84.6	51	63.3	2	5	112	0.00	29.906 
16:55	83.4	83.4	84.4	50	62.8	2	7	90	0.00	29.906 
17:00	83.8	83.8	84.7	49	62.6	2	6	90	0.00	29.898 
17:05	83.8	83.8	84.5	48	62.0	2	6	68	0.00	29.898 
17:10	83.8	83.8	85.1	51	63.7	2	5	90	0.00	29.898 
17:15	84.0	84.0	85.1	50	63.3	1	3	112	0.00	29.892 
17:20	84.3	84.3	85.5	50	63.6	2	4	112	0.00	29.892 
17:25	84.1	84.1	85.3	50	63.4	2	6	112	0.00	29.892 
17:30	84.0	84.0	84.7	48	62.2	2	5	90	0.00	29.891 
17:35	84.0	84.0	85.1	50	63.3	1	3	270	0.00	29.891 
17:40	84.1	84.1	84.4	46	61.1	2	4	90	0.00	29.891 
17:45	84.1	84.1	84.4	46	61.1	2	4	112	0.00	29.889 
17:50	84.0	84.0	84.5	47	61.6	2	5	112	0.00	29.889 
17:55	83.8	83.8	83.9	45	60.2	1	4	90	0.00	29.889 
18:00	83.6	83.6	84.1	47	61.2	1	4	248	0.00	29.891 
18:05	83.6	83.6	83.5	44	59.3	2	3	90	0.00	29.891 
18:10	83.4	83.4	83.3	44	59.2	2	4	90	0.00	29.891 
18:15	83.2	83.2	83.4	46	60.2	2	5	112	0.00	29.897 
18:20	83.0	83.0	83.2	46	60.1	1	4	90	0.00	29.897 
18:25	83.0	83.0	83.5	48	61.3	2	3	112	0.00	29.897 
18:30	82.8	82.8	83.5	49	61.7	2	6	112	0.00	29.897 
18:35	82.6	82.6	83.6	51	62.6	1	4	90	0.00	29.897 
18:40	82.6	82.6	83.0	47	60.3	2	5	112	0.00	29.897 
18:45	82.6	82.6	83.1	48	60.9	1	7	135	0.00	29.899 
18:50	82.4	82.4	82.9	48	60.7	1	3	45	0.00	29.899 
18:55	82.4	82.4	82.9	48	60.7	1	3	90	0.00	29.899 
19:00	82.4	82.4	83.0	49	61.3	1	2	90	0.00	29.892 
19:05	82.4	82.4	83.0	49	61.3	1	4	90	0.00	29.892 
19:10	82.2	82.2	82.8	49	61.1	1	5	90	0.00	29.892 
19:15	82.2	82.2	83.0	50	61.7	1	2	90	0.00	29.894 
19:20	81.8	81.8	82.4	49	60.7	1	3	90	0.00	29.894 
19:25	82.0	82.0	82.5	48	60.3	1	3	135	0.00	29.894 
19:30	82.0	82.0	82.5	48	60.3	1	4	112	0.00	29.895 
19:35	82.2	82.2	82.7	48	60.5	0	2	112	0.00	29.895 
19:40	82.2	82.2	82.5	47	59.9	1	2	135	0.00	29.895 
19:45	82.0	82.0	82.3	47	59.8	1	4	112	0.00	29.896 
19:50	82.0	82.0	82.5	48	60.3	1	3	112	0.00	29.896 
19:55	81.8	81.8	82.3	48	60.2	0	2	112	0.00	29.896 
20:00	81.6	81.6	82.1	48	60.0	0	1	112	0.00	29.902 
20:05	81.4	81.4	82.0	49	60.4	1	3	112	0.00	29.902 
20:10	81.1	81.1	81.7	49	60.1	0	3	112	0.00	29.902 
20:15	80.9	80.9	81.6	50	60.5	0	1	112	0.00	29.897 
20:20	80.5	80.5	81.4	51	60.7	0	1	112	0.00	29.897 
20:25	80.3	80.3	81.3	52	61.0	0	1	112	0.00	29.897 
20:30	79.8	79.8	80.9	53	61.1	0	1	112	0.00	29.896 
20:35	79.6	79.6	80.8	54	61.5	0	1	112	0.00	29.896 
20:40	79.2	79.2	80.5	55	61.6	0	0	---	0.00	29.896 
20:45	78.6	78.6	80.0	55	61.1	0	0	---	0.00	29.905 
20:50	78.3	78.3	79.8	56	61.3	0	0	---	0.00	29.905 
20:55	77.9	77.9	79.5	57	61.4	0	0	---	0.00	29.905 
21:00	77.4	77.4	79.1	58	61.4	0	0	---	0.00	29.907 
21:05	76.8	76.8	78.6	58	60.9	0	0	---	0.00	29.907 
21:10	76.3	76.3	78.2	60	61.4	0	0	---	0.00	29.907 
21:15	75.8	75.8	77.8	61	61.4	0	0	---	0.00	29.906 
21:20	75.4	75.4	77.5	62	61.5	0	0	---	0.00	29.906 
21:25	74.9	74.9	74.9	63	61.4	0	0	---	0.00	29.906 
21:30	74.6	74.6	74.6	64	61.6	0	0	---	0.00	29.911 
21:35	74.0	74.0	74.0	65	61.5	0	0	---	0.00	29.911 
21:40	73.7	73.7	73.7	67	62.0	0	0	---	0.00	29.911 
21:45	73.2	73.2	73.2	68	62.0	0	0	---	0.00	29.919 
21:50	72.8	72.8	72.8	69	62.0	0	0	---	0.00	29.919 
21:55	72.5	72.5	72.5	70	62.1	0	0	---	0.00	29.919 
22:00	72.1	72.1	72.1	70	61.8	0	0	---	0.00	29.925 
22:05	71.8	71.8	71.8	71	61.9	0	0	---	0.00	29.925 
22:10	71.5	71.5	71.5	72	62.0	0	0	---	0.00	29.925 
22:15	71.3	71.3	71.3	73	62.2	0	0	---	0.00	29.921 
22:20	71.3	71.3	71.3	73	62.2	0	0	---	0.00	29.921 
22:25	71.1	71.1	71.1	73	62.0	0	0	---	0.00	29.921 
22:30	70.8	70.8	70.8	73	61.7	0	0	---	0.00	29.924 
22:35	70.6	70.6	70.6	74	61.9	0	0	---	0.00	29.924 
22:40	70.4	70.4	70.4	74	61.7	0	0	---	0.00	29.924 
22:45	70.3	70.3	70.3	75	62.0	0	0	---	0.00	29.928 
22:50	70.3	70.3	70.3	75	62.0	0	0	---	0.00	29.928 
22:55	70.3	70.3	70.3	75	62.0	0	0	---	0.00	29.928 
23:00	70.1	70.1	70.1	75	61.8	0	0	---	0.00	29.938 
23:05	69.9	69.9	69.9	75	61.6	0	0	---	0.00	29.938 
23:10	69.8	69.8	69.8	77	62.3	0	0	---	0.00	29.938 
23:15	69.6	69.6	69.6	77	62.1	0	0	---	0.00	29.936 
23:20	69.3	69.3	69.3	77	61.8	0	0	---	0.00	29.936 
23:25	69.1	69.1	69.1	78	61.9	0	0	---	0.00	29.936 
23:30	68.9	68.9	68.9	79	62.1	0	0	---	0.00	29.937 
23:35	68.8	68.8	68.8	78	61.7	0	0	---	0.00	29.937 
23:40	68.9	68.9	68.9	78	61.7	0	0	---	0.00	29.937 
23:45	69.1	69.1	69.1	77	61.6	0	1	112	0.00	29.933 
23:50	69.4	69.4	69.4	76	61.5	0	1	112	0.00	29.933 
23:55	69.9	69.9	69.9	75	61.6	1	2	112	0.00	29.933 

CoCoRaHS
IN-AL-39
A2 Web Hosting
Creative Commons License
GoDaddy
Look for:

loaded 2017-12-13 02:24:03 • last modified 2010-11-18 10:43:29
Privacy PolicyDisclaimer
• wx.awcolley.com is powered by PmWiki v.2002016 •
• all content (unless otherwise noted) © 2017 A W Colley